createdAt,value
2023-05-21T00:00:00.669Z,13.83
2023-05-21T00:01:00.701Z,13.79
2023-05-21T00:02:01.121Z,13.75
2023-05-21T00:03:00.791Z,13.65
2023-05-21T00:04:00.750Z,13.58
2023-05-21T00:05:00.624Z,13.57
2023-05-21T00:06:00.639Z,13.44
2023-05-21T00:07:00.628Z,13.43
2023-05-21T00:08:00.989Z,13.51
2023-05-21T00:09:00.609Z,13.60
2023-05-21T00:10:00.583Z,13.64
2023-05-21T00:11:00.569Z,13.75
2023-05-21T00:12:00.560Z,13.79
2023-05-21T00:13:00.572Z,13.81
2023-05-21T00:14:00.532Z,13.83
2023-05-21T00:15:00.546Z,13.83
2023-05-21T00:16:00.516Z,13.81
2023-05-21T00:17:00.741Z,13.81
2023-05-21T00:18:00.522Z,13.81
2023-05-21T00:19:00.552Z,13.73
2023-05-21T00:20:00.683Z,13.75
2023-05-21T00:21:00.472Z,13.78
2023-05-21T00:22:00.417Z,13.78
2023-05-21T00:23:00.469Z,13.76
2023-05-21T00:24:00.409Z,13.79
2023-05-21T00:25:00.409Z,13.83
2023-05-21T00:26:00.982Z,13.93
2023-05-21T00:27:00.382Z,13.91
2023-05-21T00:28:00.390Z,13.94
2023-05-21T00:29:00.404Z,13.99
2023-05-21T00:30:01.064Z,13.98
2023-05-21T00:31:00.353Z,13.98
2023-05-21T00:32:00.383Z,14.01
2023-05-21T00:33:01.212Z,13.91
2023-05-21T00:34:00.285Z,13.94
2023-05-21T00:35:00.297Z,13.90
2023-05-21T00:36:01.228Z,13.90
2023-05-21T00:37:00.706Z,13.89
2023-05-21T00:38:00.268Z,13.85
2023-05-21T00:39:00.251Z,13.84
2023-05-21T00:40:00.291Z,13.80
2023-05-21T00:41:00.511Z,13.75
2023-05-21T00:42:01.156Z,13.73
2023-05-21T00:43:00.221Z,13.76
2023-05-21T00:44:00.192Z,13.71
2023-05-21T00:45:00.238Z,13.67
2023-05-21T00:46:00.257Z,13.70
2023-05-21T00:47:00.163Z,13.66
2023-05-21T00:48:00.171Z,13.65
2023-05-21T00:49:00.137Z,13.65
2023-05-21T00:50:00.174Z,13.64
2023-05-21T00:51:00.139Z,13.66
2023-05-21T00:52:00.125Z,13.65
2023-05-21T00:53:00.134Z,13.62
2023-05-21T00:54:00.061Z,13.59
2023-05-21T00:55:00.086Z,13.53
2023-05-21T00:56:00.051Z,13.60
2023-05-21T00:57:00.108Z,13.51
2023-05-21T00:58:00.055Z,13.53
2023-05-21T00:59:00.044Z,13.49
2023-05-21T01:00:00.075Z,13.39
2023-05-21T01:01:00.026Z,13.44
2023-05-21T01:02:00.000Z,13.38
2023-05-21T01:03:00.084Z,13.26
2023-05-21T01:03:59.934Z,13.25
2023-05-21T01:04:59.976Z,13.22
2023-05-21T01:06:00.391Z,13.16
2023-05-21T01:06:59.920Z,13.12
2023-05-21T01:07:59.892Z,13.16
2023-05-21T01:08:59.905Z,13.10
2023-05-21T01:09:59.903Z,13.06
2023-05-21T01:10:59.879Z,13.05
2023-05-21T01:11:59.873Z,12.99
2023-05-21T01:12:59.882Z,12.99
2023-05-21T01:13:59.850Z,12.90
2023-05-21T01:14:59.826Z,12.89
2023-05-21T01:16:00.174Z,12.89
2023-05-21T01:16:59.850Z,12.89
2023-05-21T01:17:59.830Z,12.93
2023-05-21T01:18:59.980Z,12.96
2023-05-21T01:19:59.757Z,13.01
2023-05-21T01:20:59.919Z,12.93
2023-05-21T01:21:59.739Z,13.02
2023-05-21T01:22:59.814Z,12.96
2023-05-21T01:24:00.178Z,12.99
2023-05-21T01:24:59.724Z,12.99
2023-05-21T01:25:59.689Z,12.92
2023-05-21T01:26:59.718Z,12.91
2023-05-21T01:27:59.665Z,12.85
2023-05-21T01:28:59.668Z,12.88
2023-05-21T01:30:00.232Z,12.82
2023-05-21T01:30:59.649Z,12.88
2023-05-21T01:31:59.638Z,12.85
2023-05-21T01:32:59.692Z,12.83
2023-05-21T01:33:59.678Z,12.79
2023-05-21T01:34:59.609Z,12.77
2023-05-21T01:35:59.572Z,12.81
2023-05-21T01:37:00.194Z,12.78
2023-05-21T01:37:59.924Z,12.72
2023-05-21T01:38:59.554Z,12.78
2023-05-21T01:40:00.188Z,12.71
2023-05-21T01:40:59.520Z,12.77
2023-05-21T01:41:59.536Z,12.79
2023-05-21T01:42:59.523Z,12.80
2023-05-21T01:43:59.491Z,12.75
2023-05-21T01:44:59.655Z,12.85
2023-05-21T01:45:59.490Z,12.77
2023-05-21T01:46:59.493Z,12.80
2023-05-21T01:47:59.570Z,12.89
2023-05-21T01:48:59.580Z,12.93
2023-05-21T01:49:59.423Z,12.92
2023-05-21T01:50:59.429Z,12.96
2023-05-21T01:51:59.664Z,12.92
2023-05-21T01:52:59.705Z,12.87
2023-05-21T01:53:59.393Z,12.87
2023-05-21T01:54:59.453Z,12.81
2023-05-21T01:55:59.464Z,12.81
2023-05-21T01:56:59.409Z,12.80
2023-05-21T01:58:01.801Z,12.74
2023-05-21T01:58:59.614Z,12.74
2023-05-21T01:59:59.319Z,12.68
2023-05-21T02:00:59.605Z,12.60
2023-05-21T02:01:59.666Z,12.61
2023-05-21T02:02:59.812Z,12.52
2023-05-21T02:03:59.806Z,12.46
2023-05-21T02:04:59.262Z,12.43
2023-05-21T02:05:59.247Z,12.36
2023-05-21T02:06:59.762Z,12.30
2023-05-21T02:07:59.216Z,12.31
2023-05-21T02:08:59.235Z,12.23
2023-05-21T02:09:59.394Z,12.23
2023-05-21T02:10:59.204Z,12.19
2023-05-21T02:11:59.224Z,12.15
2023-05-21T02:12:59.231Z,12.13
2023-05-21T02:13:59.158Z,12.14
2023-05-21T02:14:59.161Z,12.11
2023-05-21T02:15:59.802Z,12.05
2023-05-21T02:16:59.233Z,12.03
2023-05-21T02:18:00.175Z,12.08
2023-05-21T02:18:59.740Z,12.03
2023-05-21T02:19:59.184Z,12.06
2023-05-21T02:20:59.096Z,12.02
2023-05-21T02:21:59.084Z,12.04
2023-05-21T02:22:59.096Z,12.02
2023-05-21T02:23:59.330Z,11.99
2023-05-21T02:24:59.254Z,11.99
2023-05-21T02:26:00.116Z,11.97
2023-05-21T02:26:59.026Z,11.97
2023-05-21T02:27:59.237Z,11.97
2023-05-21T02:28:59.261Z,11.97
2023-05-21T02:29:58.985Z,11.97
2023-05-21T02:30:59.802Z,11.94
2023-05-21T02:32:00.067Z,11.95
2023-05-21T02:32:59.101Z,11.95
2023-05-21T02:33:58.997Z,11.88
2023-05-21T02:34:58.972Z,11.85
2023-05-21T02:35:59.016Z,11.87
2023-05-21T02:36:59.033Z,11.87
2023-05-21T02:37:59.067Z,11.85
2023-05-21T02:38:59.092Z,11.85
2023-05-21T02:39:59.116Z,11.87
2023-05-21T02:40:59.128Z,11.89
2023-05-21T02:41:59.183Z,11.92
2023-05-21T02:42:59.217Z,11.87
2023-05-21T02:43:59.259Z,11.89
2023-05-21T02:44:58.814Z,11.89
2023-05-21T02:45:58.879Z,11.87
2023-05-21T02:46:58.866Z,11.91
2023-05-21T02:47:58.917Z,11.90
2023-05-21T02:48:58.817Z,11.90
2023-05-21T02:49:58.945Z,11.92
2023-05-21T02:50:58.754Z,11.99
2023-05-21T02:51:58.995Z,11.98
2023-05-21T02:52:58.710Z,11.93
2023-05-21T02:53:58.732Z,11.91
2023-05-21T02:54:59.063Z,11.96
2023-05-21T02:55:59.093Z,11.96
2023-05-21T02:56:59.134Z,11.96
2023-05-21T02:57:59.149Z,11.95
2023-05-21T02:58:59.195Z,12.00
2023-05-21T02:59:59.209Z,12.01
2023-05-21T03:00:59.249Z,11.97
2023-05-21T03:01:59.291Z,11.96
2023-05-21T03:02:58.750Z,12.00
2023-05-21T03:03:58.882Z,11.95
2023-05-21T03:04:59.265Z,11.96
2023-05-21T03:05:58.611Z,11.99
2023-05-21T03:06:59.256Z,11.97
2023-05-21T03:07:59.278Z,11.86
2023-05-21T03:08:58.526Z,11.90
2023-05-21T03:09:58.550Z,11.93
2023-05-21T03:10:58.781Z,11.88
2023-05-21T03:11:59.258Z,11.87
2023-05-21T03:12:58.645Z,11.89
2023-05-21T03:13:59.280Z,11.83
2023-05-21T03:14:59.274Z,11.81
2023-05-21T03:15:58.563Z,11.76
2023-05-21T03:16:59.387Z,11.76
2023-05-21T03:17:59.244Z,11.83
2023-05-21T03:18:58.999Z,11.77
2023-05-21T03:19:59.296Z,11.79
2023-05-21T03:20:58.904Z,11.78
2023-05-21T03:21:58.403Z,11.81
2023-05-21T03:22:58.404Z,11.80
2023-05-21T03:23:58.450Z,11.83
2023-05-21T03:24:58.478Z,11.85
2023-05-21T03:25:58.499Z,11.80
2023-05-21T03:26:58.328Z,11.81
2023-05-21T03:27:58.562Z,11.83
2023-05-21T03:28:58.314Z,11.79
2023-05-21T03:29:58.294Z,11.82
2023-05-21T03:30:58.295Z,11.81
2023-05-21T03:31:58.367Z,11.82
2023-05-21T03:32:58.294Z,11.85
2023-05-21T03:33:58.345Z,11.83
2023-05-21T03:34:58.288Z,11.83
2023-05-21T03:35:58.238Z,11.81
2023-05-21T03:36:58.242Z,11.74
2023-05-21T03:37:58.269Z,11.78
2023-05-21T03:38:58.189Z,11.85
2023-05-21T03:39:58.304Z,11.89
2023-05-21T03:40:58.296Z,11.83
2023-05-21T03:41:58.185Z,11.84
2023-05-21T03:42:58.155Z,11.87
2023-05-21T03:43:58.311Z,11.83
2023-05-21T03:44:58.294Z,11.89
2023-05-21T03:45:58.363Z,11.89
2023-05-21T03:46:58.262Z,11.87
2023-05-21T03:47:58.343Z,11.87
2023-05-21T03:48:58.105Z,11.87
2023-05-21T03:49:58.320Z,11.90
2023-05-21T03:50:58.058Z,11.89
2023-05-21T03:51:58.310Z,11.95
2023-05-21T03:52:58.308Z,11.93
2023-05-21T03:53:58.051Z,11.88
2023-05-21T03:54:58.037Z,11.91
2023-05-21T03:55:58.323Z,11.93
2023-05-21T03:56:57.976Z,11.96
2023-05-21T03:57:58.003Z,11.90
2023-05-21T03:58:58.122Z,11.85
2023-05-21T03:59:58.317Z,11.93
2023-05-21T04:00:58.334Z,11.91
2023-05-21T04:01:58.319Z,11.88
2023-05-21T04:02:58.452Z,11.90
2023-05-21T04:03:58.112Z,11.88
2023-05-21T04:04:57.929Z,11.86
2023-05-21T04:05:58.324Z,11.89
2023-05-21T04:06:57.876Z,11.87
2023-05-21T04:07:58.323Z,11.87
2023-05-21T04:08:58.104Z,11.92
2023-05-21T04:09:58.334Z,11.89
2023-05-21T04:10:57.858Z,11.91
2023-05-21T04:11:57.877Z,11.98
2023-05-21T04:12:57.814Z,11.94
2023-05-21T04:13:57.826Z,11.92
2023-05-21T04:14:57.894Z,11.96
2023-05-21T04:15:58.000Z,11.95
2023-05-21T04:16:58.053Z,11.95
2023-05-21T04:17:58.075Z,12.01
2023-05-21T04:18:57.762Z,11.99
2023-05-21T04:19:58.134Z,12.04
2023-05-21T04:20:57.730Z,11.99
2023-05-21T04:21:58.129Z,12.07
2023-05-21T04:22:58.145Z,12.05
2023-05-21T04:23:58.030Z,12.06
2023-05-21T04:24:58.268Z,12.09
2023-05-21T04:25:58.304Z,12.08
2023-05-21T04:26:58.104Z,12.09
2023-05-21T04:27:57.664Z,12.13
2023-05-21T04:28:57.678Z,12.10
2023-05-21T04:29:57.702Z,12.08
2023-05-21T04:30:57.616Z,12.13
2023-05-21T04:31:57.736Z,12.11
2023-05-21T04:32:57.834Z,12.13
2023-05-21T04:33:57.603Z,12.12
2023-05-21T04:34:57.820Z,12.14
2023-05-21T04:35:57.989Z,12.20
2023-05-21T04:36:57.538Z,12.17
2023-05-21T04:37:57.563Z,12.20
2023-05-21T04:38:57.569Z,12.30
2023-05-21T04:39:57.964Z,12.25
2023-05-21T04:40:58.008Z,12.27
2023-05-21T04:41:57.529Z,12.33
2023-05-21T04:42:57.526Z,12.38
2023-05-21T04:43:58.099Z,12.40
2023-05-21T04:44:57.912Z,12.49
2023-05-21T04:45:57.475Z,12.52
2023-05-21T04:46:58.208Z,12.55
2023-05-21T04:47:58.242Z,12.56
2023-05-21T04:48:57.388Z,12.65
2023-05-21T04:49:58.241Z,12.68
2023-05-21T04:50:57.390Z,12.73
2023-05-21T04:51:57.382Z,12.72
2023-05-21T04:52:57.334Z,12.76
2023-05-21T04:53:57.381Z,12.85
2023-05-21T04:54:57.346Z,12.88
2023-05-21T04:55:57.357Z,12.84
2023-05-21T04:56:57.379Z,12.91
2023-05-21T04:57:57.320Z,12.86
2023-05-21T04:58:57.266Z,12.89
2023-05-21T04:59:57.349Z,12.86
2023-05-21T05:00:57.275Z,12.94
2023-05-21T05:01:57.252Z,12.95
2023-05-21T05:02:57.326Z,13.02
2023-05-21T05:03:57.468Z,13.05
2023-05-21T05:04:57.206Z,13.10
2023-05-21T05:05:57.216Z,13.05
2023-05-21T05:06:57.363Z,13.09
2023-05-21T05:07:57.214Z,13.10
2023-05-21T05:08:57.170Z,13.08
2023-05-21T05:09:57.171Z,13.12
2023-05-21T05:10:57.372Z,13.19
2023-05-21T05:11:57.180Z,13.33
2023-05-21T05:12:57.766Z,13.47
2023-05-21T05:13:57.130Z,13.55
2023-05-21T05:14:57.851Z,13.60
2023-05-21T05:15:57.461Z,13.77
2023-05-21T05:16:57.098Z,13.87
2023-05-21T05:17:57.176Z,13.91
2023-05-21T05:18:57.828Z,13.94
2023-05-21T05:19:57.064Z,13.99
2023-05-21T05:20:57.069Z,14.03
2023-05-21T05:21:57.022Z,13.98
2023-05-21T05:22:57.144Z,14.00
2023-05-21T05:23:57.046Z,13.98
2023-05-21T05:24:56.999Z,14.00
2023-05-21T05:25:56.998Z,14.08
2023-05-21T05:26:56.970Z,14.26
2023-05-21T05:27:57.257Z,14.28
2023-05-21T05:28:56.952Z,14.36
2023-05-21T05:29:56.968Z,14.47
2023-05-21T05:30:57.370Z,14.58
2023-05-21T05:31:56.914Z,14.78
2023-05-21T05:32:56.973Z,14.93
2023-05-21T05:33:56.911Z,15.05
2023-05-21T05:34:56.865Z,15.05
2023-05-21T05:35:56.875Z,15.02
2023-05-21T05:36:56.853Z,15.09
2023-05-21T05:37:56.849Z,15.12
2023-05-21T05:38:57.420Z,15.18
2023-05-21T05:39:56.834Z,15.17
2023-05-21T05:40:56.815Z,15.24
2023-05-21T05:41:56.811Z,15.40
2023-05-21T05:42:56.769Z,15.48
2023-05-21T05:43:56.800Z,15.50
2023-05-21T05:44:56.805Z,15.44
2023-05-21T05:45:56.845Z,15.46
2023-05-21T05:46:56.726Z,15.34
2023-05-21T05:47:57.086Z,15.34
2023-05-21T05:48:56.699Z,15.43
2023-05-21T05:49:56.741Z,15.54
2023-05-21T05:50:56.689Z,15.74
2023-05-21T05:51:56.704Z,15.82
2023-05-21T05:52:56.680Z,15.96
2023-05-21T05:53:56.680Z,16.08
2023-05-21T05:54:56.648Z,16.20
2023-05-21T05:55:56.635Z,16.30
2023-05-21T05:56:56.638Z,16.42
2023-05-21T05:57:56.641Z,16.38
2023-05-21T05:58:56.603Z,16.46
2023-05-21T05:59:56.765Z,16.46
2023-05-21T06:00:56.569Z,16.72
2023-05-21T06:01:56.584Z,16.96
2023-05-21T06:02:57.453Z,17.38
2023-05-21T06:03:56.588Z,17.69
2023-05-21T06:04:56.521Z,18.08
2023-05-21T06:05:56.592Z,18.35
2023-05-21T06:06:56.491Z,18.60
2023-05-21T06:07:57.425Z,19.07
2023-05-21T06:08:57.407Z,19.35
2023-05-21T06:09:56.481Z,19.68
2023-05-21T06:10:57.410Z,20.00
2023-05-21T06:11:56.474Z,20.23
2023-05-21T06:12:56.427Z,20.36
2023-05-21T06:13:56.441Z,20.87
2023-05-21T06:14:56.419Z,21.49
2023-05-21T06:15:56.441Z,22.12
2023-05-21T06:16:56.396Z,22.52
2023-05-21T06:17:56.407Z,23.07
2023-05-21T06:18:56.441Z,23.27
2023-05-21T06:19:56.409Z,23.80
2023-05-21T06:20:56.332Z,24.43
2023-05-21T06:21:56.331Z,25.36
2023-05-21T06:22:56.332Z,26.34
2023-05-21T06:23:56.324Z,26.90
2023-05-21T06:24:56.368Z,27.48
2023-05-21T06:25:56.323Z,28.33
2023-05-21T06:26:56.424Z,29.48
2023-05-21T06:27:56.290Z,30.78
2023-05-21T06:28:56.236Z,32.04
2023-05-21T06:29:56.255Z,33.23
2023-05-21T06:30:56.218Z,34.23
2023-05-21T06:31:56.436Z,35.12
2023-05-21T06:32:56.301Z,35.78
2023-05-21T06:33:56.330Z,36.08
2023-05-21T06:34:56.427Z,35.93
2023-05-21T06:35:56.207Z,36.65
2023-05-21T06:36:56.162Z,36.87
2023-05-21T06:37:56.156Z,37.07
2023-05-21T06:38:56.128Z,36.91
2023-05-21T06:39:56.137Z,37.50
2023-05-21T06:40:56.440Z,38.88
2023-05-21T06:41:56.107Z,39.99
2023-05-21T06:42:56.446Z,40.46
2023-05-21T06:43:56.106Z,41.49
2023-05-21T06:44:56.092Z,41.82
2023-05-21T06:45:56.092Z,42.20
2023-05-21T06:46:56.054Z,42.41
2023-05-21T06:47:56.051Z,42.76
2023-05-21T06:48:56.043Z,43.51
2023-05-21T06:49:56.015Z,43.87
2023-05-21T06:50:56.451Z,44.19
2023-05-21T06:51:55.982Z,44.24
2023-05-21T06:52:56.003Z,43.78
2023-05-21T06:53:55.951Z,44.19
2023-05-21T06:54:55.962Z,44.43
2023-05-21T06:55:56.449Z,45.09
2023-05-21T06:56:56.442Z,46.49
2023-05-21T06:57:55.938Z,47.62
2023-05-21T06:58:56.454Z,47.73
2023-05-21T06:59:56.456Z,49.07
2023-05-21T07:00:56.509Z,49.85
2023-05-21T07:01:55.916Z,51.44
2023-05-21T07:02:55.970Z,51.79
2023-05-21T07:03:55.914Z,53.16
2023-05-21T07:04:55.939Z,55.15
2023-05-21T07:05:55.815Z,55.88
2023-05-21T07:06:55.848Z,56.87
2023-05-21T07:07:55.779Z,58.17
2023-05-21T07:08:55.793Z,59.15
2023-05-21T07:09:55.809Z,61.12
2023-05-21T07:10:55.780Z,63.34
2023-05-21T07:11:55.812Z,66.54
2023-05-21T07:12:55.948Z,68.44
2023-05-21T07:13:55.742Z,69.46
2023-05-21T07:14:57.563Z,71.29
2023-05-21T07:15:55.698Z,73.98
2023-05-21T07:16:55.752Z,75.24
2023-05-21T07:17:55.726Z,74.90
2023-05-21T07:18:55.785Z,74.31
2023-05-21T07:19:56.317Z,75.51
2023-05-21T07:20:56.354Z,77.18
2023-05-21T07:21:55.648Z,78.11
2023-05-21T07:22:55.652Z,79.36
2023-05-21T07:23:55.639Z,79.74
2023-05-21T07:24:56.457Z,81.75
2023-05-21T07:25:55.584Z,83.62
2023-05-21T07:26:55.599Z,85.41
2023-05-21T07:27:55.578Z,87.18
2023-05-21T07:28:56.483Z,88.19
2023-05-21T07:29:55.563Z,88.65
2023-05-21T07:30:56.456Z,89.31
2023-05-21T07:31:56.308Z,88.93
2023-05-21T07:32:55.605Z,88.65
2023-05-21T07:33:55.484Z,89.21
2023-05-21T07:34:55.501Z,89.21
2023-05-21T07:35:55.481Z,88.28
2023-05-21T07:36:55.510Z,86.55
2023-05-21T07:37:55.448Z,84.55
2023-05-21T07:38:55.460Z,84.13
2023-05-21T07:39:55.442Z,83.38
2023-05-21T07:40:55.433Z,83.54
2023-05-21T07:41:55.404Z,83.79
2023-05-21T07:42:55.436Z,84.72
2023-05-21T07:43:55.390Z,85.24
2023-05-21T07:44:55.496Z,86.82
2023-05-21T07:45:55.367Z,87.54
2023-05-21T07:46:55.484Z,89.12
2023-05-21T07:47:55.370Z,88.84
2023-05-21T07:48:55.350Z,88.74
2023-05-21T07:49:55.343Z,88.65
2023-05-21T07:50:55.313Z,91.55
2023-05-21T07:51:55.334Z,92.66
2023-05-21T07:52:55.391Z,92.56
2023-05-21T07:53:55.563Z,92.96
2023-05-21T07:54:55.324Z,92.76
2023-05-21T07:55:55.250Z,93.07
2023-05-21T07:56:55.277Z,92.56
2023-05-21T07:57:55.217Z,92.96
2023-05-21T07:58:55.234Z,94.53
2023-05-21T07:59:55.213Z,94.21
2023-05-21T08:00:55.458Z,92.35
2023-05-21T08:01:55.190Z,90.27
2023-05-21T08:02:55.316Z,90.56
2023-05-21T08:03:55.288Z,92.05
2023-05-21T08:04:55.316Z,91.65
2023-05-21T08:05:55.138Z,89.12
2023-05-21T08:06:55.142Z,84.04
2023-05-21T08:07:55.130Z,76.75
2023-05-21T08:08:55.114Z,74.84
2023-05-21T08:09:55.111Z,78.84
2023-05-21T08:10:55.508Z,82.39
2023-05-21T08:11:55.083Z,85.67
2023-05-21T08:12:55.056Z,88.37
2023-05-21T08:13:55.064Z,91.65
2023-05-21T08:14:55.032Z,93.69
2023-05-21T08:15:55.093Z,92.66
2023-05-21T08:16:55.514Z,85.32
2023-05-21T08:17:55.047Z,81.04
2023-05-21T08:18:55.028Z,77.96
2023-05-21T08:19:54.973Z,80.12
2023-05-21T08:20:55.023Z,82.80
2023-05-21T08:21:54.992Z,83.71
2023-05-21T08:22:54.979Z,82.31
2023-05-21T08:23:54.931Z,79.06
2023-05-21T08:24:55.325Z,77.10
2023-05-21T08:25:55.516Z,76.40
2023-05-21T08:26:54.912Z,75.38
2023-05-21T08:27:54.882Z,75.78
2023-05-21T08:28:54.899Z,75.71
2023-05-21T08:29:54.851Z,76.40
2023-05-21T08:30:54.955Z,76.82
2023-05-21T08:31:54.908Z,76.26
2023-05-21T08:32:55.181Z,76.26
2023-05-21T08:33:54.816Z,76.96
2023-05-21T08:34:54.856Z,78.40
2023-05-21T08:35:54.800Z,80.04
2023-05-21T08:36:54.829Z,80.12
2023-05-21T08:37:54.802Z,79.06
2023-05-21T08:38:54.766Z,78.04
2023-05-21T08:39:54.740Z,77.96
2023-05-21T08:40:55.333Z,78.77
2023-05-21T08:41:55.129Z,79.66
2023-05-21T08:42:55.114Z,79.14
2023-05-21T08:43:55.012Z,76.96
2023-05-21T08:44:54.700Z,76.54
2023-05-21T08:45:54.722Z,78.69
2023-05-21T08:46:54.690Z,81.67
2023-05-21T08:47:54.706Z,83.54
2023-05-21T08:48:54.651Z,84.63
2023-05-21T08:49:54.675Z,86.20
2023-05-21T08:50:54.655Z,89.21
2023-05-21T08:51:54.604Z,90.76
2023-05-21T08:52:54.623Z,91.05
2023-05-21T08:53:54.582Z,93.58
2023-05-21T08:54:54.644Z,95.15
2023-05-21T08:55:54.556Z,97.41
2023-05-21T08:56:54.569Z,94.11
2023-05-21T08:57:54.566Z,89.98
2023-05-21T08:58:54.566Z,91.75
2023-05-21T08:59:54.535Z,93.27
2023-05-21T09:00:54.531Z,93.79
2023-05-21T09:01:54.507Z,93.17
2023-05-21T09:02:54.772Z,93.79
2023-05-21T09:03:59.073Z,95.04
2023-05-21T09:04:55.474Z,98.32
2023-05-21T09:05:54.549Z,102.51
2023-05-21T09:06:54.570Z,105.08
2023-05-21T09:07:54.546Z,106.21
2023-05-21T09:08:54.420Z,109.39
2023-05-21T09:09:54.397Z,110.61
2023-05-21T09:10:54.434Z,111.64
2023-05-21T09:11:54.407Z,112.16
2023-05-21T09:12:54.395Z,113.90
2023-05-21T09:13:54.366Z,114.84
2023-05-21T09:14:54.375Z,118.31
2023-05-21T09:15:54.460Z,120.26
2023-05-21T09:16:54.369Z,123.89
2023-05-21T09:17:54.341Z,123.62
2023-05-21T09:18:54.372Z,123.89
2023-05-21T09:19:54.279Z,122.90
2023-05-21T09:20:54.298Z,126.31
2023-05-21T09:21:54.284Z,132.70
2023-05-21T09:22:54.265Z,133.96
2023-05-21T09:23:54.262Z,132.49
2023-05-21T09:24:54.250Z,133.75
2023-05-21T09:25:54.227Z,135.69
2023-05-21T09:26:54.569Z,135.80
2023-05-21T09:27:54.217Z,138.72
2023-05-21T09:28:54.230Z,138.37
2023-05-21T09:29:54.174Z,136.80
2023-05-21T09:30:54.344Z,136.24
2023-05-21T09:31:54.227Z,135.80
2023-05-21T09:32:54.212Z,138.72
2023-05-21T09:33:54.132Z,142.00
2023-05-21T09:34:54.512Z,141.16
2023-05-21T09:35:54.127Z,138.03
2023-05-21T09:36:54.122Z,137.69
2023-05-21T09:37:54.085Z,137.81
2023-05-21T09:38:54.109Z,137.36
2023-05-21T09:39:54.101Z,136.57
2023-05-21T09:40:54.094Z,138.95
2023-05-21T09:41:54.057Z,142.00
2023-05-21T09:42:54.054Z,143.57
2023-05-21T09:43:54.037Z,142.00
2023-05-21T09:44:54.058Z,142.84
2023-05-21T09:45:54.130Z,147.35
2023-05-21T09:46:54.075Z,148.65
2023-05-21T09:47:54.038Z,149.05
2023-05-21T09:48:53.998Z,147.61
2023-05-21T09:49:53.970Z,150.51
2023-05-21T09:50:53.963Z,150.24
2023-05-21T09:51:53.967Z,151.19
2023-05-21T09:52:53.932Z,153.68
2023-05-21T09:53:53.924Z,158.46
2023-05-21T09:54:53.935Z,157.86
2023-05-21T09:55:53.880Z,158.16
2023-05-21T09:56:53.903Z,158.61
2023-05-21T09:57:53.874Z,158.46
2023-05-21T09:58:53.860Z,156.69
2023-05-21T09:59:53.861Z,157.71
2023-05-21T10:00:53.850Z,160.12
2023-05-21T10:01:53.821Z,163.86
2023-05-21T10:02:53.908Z,167.62
2023-05-21T10:03:53.901Z,167.46
2023-05-21T10:04:53.881Z,170.68
2023-05-21T10:05:53.794Z,168.80
2023-05-21T10:06:54.074Z,163.86
2023-05-21T10:07:53.747Z,161.50
2023-05-21T10:08:53.758Z,165.80
2023-05-21T10:09:54.677Z,167.29
2023-05-21T10:10:53.757Z,174.40
2023-05-21T10:11:53.689Z,179.24
2023-05-21T10:12:53.704Z,181.95
2023-05-21T10:13:53.678Z,183.34
2023-05-21T10:14:53.709Z,181.95
2023-05-21T10:15:53.724Z,179.62
2023-05-21T10:16:53.657Z,182.35
2023-05-21T10:17:54.728Z,185.57
2023-05-21T10:18:53.673Z,190.47
2023-05-21T10:19:53.608Z,192.13
2023-05-21T10:20:53.683Z,192.13
2023-05-21T10:21:53.581Z,190.25
2023-05-21T10:22:53.622Z,189.71
2023-05-21T10:23:53.560Z,191.46
2023-05-21T10:24:53.603Z,195.54
2023-05-21T10:25:53.788Z,194.96
2023-05-21T10:26:53.563Z,197.29
2023-05-21T10:27:53.537Z,198.84
2023-05-21T10:28:53.522Z,202.49
2023-05-21T10:29:53.513Z,204.11
2023-05-21T10:30:53.518Z,206.28
2023-05-21T10:31:53.537Z,207.18
2023-05-21T10:32:53.636Z,207.71
2023-05-21T10:33:53.588Z,209.41
2023-05-21T10:34:53.468Z,209.55
2023-05-21T10:35:53.515Z,207.44
2023-05-21T10:36:53.436Z,205.64
2023-05-21T10:37:53.435Z,206.02
2023-05-21T10:38:53.648Z,211.97
2023-05-21T10:39:53.392Z,212.79
2023-05-21T10:40:53.391Z,212.10
2023-05-21T10:41:54.427Z,216.55
2023-05-21T10:42:53.381Z,212.10
2023-05-21T10:43:53.638Z,194.51
2023-05-21T10:44:53.343Z,189.71
2023-05-21T10:45:53.461Z,188.73
2023-05-21T10:46:53.645Z,196.59
2023-05-21T10:47:54.473Z,203.24
2023-05-21T10:48:53.638Z,209.02
2023-05-21T10:49:53.305Z,210.62
2023-05-21T10:50:53.267Z,210.88
2023-05-21T10:51:53.237Z,214.86
2023-05-21T10:52:53.271Z,215.00
2023-05-21T10:53:53.226Z,217.12
2023-05-21T10:54:53.534Z,221.18
2023-05-21T10:55:53.246Z,226.33
2023-05-21T10:56:53.195Z,226.02
2023-05-21T10:57:53.400Z,228.68
2023-05-21T10:58:53.184Z,230.12
2023-05-21T10:59:53.174Z,230.28
2023-05-21T11:00:53.184Z,228.05
2023-05-21T11:01:53.249Z,224.64
2023-05-21T11:02:53.708Z,226.49
2023-05-21T11:03:53.178Z,227.42
2023-05-21T11:04:53.121Z,229.32
2023-05-21T11:05:53.146Z,228.37
2023-05-21T11:06:53.078Z,230.44
2023-05-21T11:07:53.139Z,229.16
2023-05-21T11:08:55.122Z,229.16
2023-05-21T11:09:53.664Z,229.64
2023-05-21T11:10:53.282Z,230.92
2023-05-21T11:11:53.036Z,231.08
2023-05-21T11:12:53.029Z,232.54
2023-05-21T11:13:53.109Z,235.19
2023-05-21T11:14:52.998Z,234.86
2023-05-21T11:15:52.992Z,234.03
2023-05-21T11:16:53.955Z,235.69
2023-05-21T11:17:53.013Z,234.36
2023-05-21T11:18:53.251Z,232.38
2023-05-21T11:19:52.970Z,230.76
2023-05-21T11:20:52.917Z,230.92
2023-05-21T11:21:53.345Z,232.87
2023-05-21T11:22:52.890Z,234.36
2023-05-21T11:23:52.917Z,237.73
2023-05-21T11:24:52.867Z,239.62
2023-05-21T11:25:52.869Z,241.55
2023-05-21T11:26:52.873Z,246.41
2023-05-21T11:27:52.876Z,247.52
2023-05-21T11:28:52.842Z,251.66
2023-05-21T11:29:53.077Z,253.98
2023-05-21T11:30:52.794Z,256.75
2023-05-21T11:31:52.972Z,258.55
2023-05-21T11:32:52.800Z,261.42
2023-05-21T11:33:52.790Z,264.98
2023-05-21T11:34:52.793Z,269.51
2023-05-21T11:35:52.792Z,268.42
2023-05-21T11:36:52.732Z,271.73
2023-05-21T11:37:53.409Z,278.60
2023-05-21T11:38:52.720Z,280.02
2023-05-21T11:39:52.752Z,278.36
2023-05-21T11:40:52.681Z,277.43
2023-05-21T11:41:52.756Z,286.57
2023-05-21T11:42:52.696Z,295.80
2023-05-21T11:43:52.664Z,294.75
2023-05-21T11:44:52.652Z,299.01
2023-05-21T11:45:52.700Z,305.08
2023-05-21T11:46:52.779Z,309.08
2023-05-21T11:47:52.783Z,306.21
2023-05-21T11:48:52.586Z,300.64
2023-05-21T11:49:52.590Z,296.86
2023-05-21T11:50:52.679Z,300.64
2023-05-21T11:51:52.565Z,301.47
2023-05-21T11:52:52.546Z,304.24
2023-05-21T11:53:52.544Z,302.85
2023-05-21T11:54:52.518Z,305.65
2023-05-21T11:55:52.548Z,303.68
2023-05-21T11:56:52.499Z,300.64
2023-05-21T11:57:52.563Z,299.28
2023-05-21T11:58:52.485Z,294.75
2023-05-21T11:59:52.488Z,298.47
2023-05-21T12:00:52.496Z,307.35
2023-05-21T12:01:52.454Z,305.36
2023-05-21T12:02:52.580Z,303.68
2023-05-21T12:03:52.532Z,300.37
2023-05-21T12:04:52.433Z,299.55
2023-05-21T12:05:52.461Z,292.14
2023-05-21T12:06:52.393Z,289.08
2023-05-21T12:07:52.531Z,290.60
2023-05-21T12:08:52.400Z,292.40
2023-05-21T12:09:52.716Z,292.66
2023-05-21T12:10:52.362Z,289.58
2023-05-21T12:11:52.353Z,290.35
2023-05-21T12:12:55.481Z,278.13
2023-05-21T12:13:52.342Z,271.73
2023-05-21T12:14:52.280Z,271.95
2023-05-21T12:15:52.318Z,270.84
2023-05-21T12:16:52.375Z,268.64
2023-05-21T12:17:52.349Z,264.13
2023-05-21T12:18:52.282Z,262.45
2023-05-21T12:19:52.263Z,256.35
2023-05-21T12:20:52.336Z,252.82
2023-05-21T12:21:52.270Z,246.96
2023-05-21T12:22:52.200Z,248.07
2023-05-21T12:23:52.226Z,249.95
2023-05-21T12:24:52.193Z,252.82
2023-05-21T12:25:52.215Z,251.28
2023-05-21T12:26:52.173Z,248.26
2023-05-21T12:27:52.167Z,247.15
2023-05-21T12:28:52.129Z,246.23
2023-05-21T12:29:52.137Z,246.41
2023-05-21T12:30:52.150Z,246.23
2023-05-21T12:31:52.138Z,244.41
2023-05-21T12:32:52.121Z,245.13
2023-05-21T12:33:52.127Z,245.50
2023-05-21T12:34:52.062Z,245.86
2023-05-21T12:35:52.126Z,242.97
2023-05-21T12:36:52.056Z,244.59
2023-05-21T12:37:52.137Z,243.15
2023-05-21T12:38:52.035Z,241.02
2023-05-21T12:39:52.020Z,238.93
2023-05-21T12:40:52.000Z,235.69
2023-05-21T12:41:51.992Z,239.45
2023-05-21T12:42:52.092Z,241.90
2023-05-21T12:43:51.985Z,242.97
2023-05-21T12:44:51.946Z,244.77